Skip Navigation Links Skip Navigation Links

Current Weather

College Park, Md.

For information only: do not use for flight planning or navigation.
Latest weather
Observation time Sunday, August 1, 2021 5:35 AM EDT
Local time Sunday, August 1, 2021 6:45 AM EDT
Flight conditions Visual Meteorological Conditions
Winds
Wind speed calm
Visibility 10 mi.
Sky condition
Ceiling 8,500 ft. overcast
Cloud layer overcast 8,500 ft.
Temperature 69°F
Dewpoint 66°F
Altimeter 29.89 in.Hg
Derived measurements
Relative humidity 93%
Density altitude 1004 ft.
Remarks
Fully automated report.
Automated weather observing station without precipitation discriminator.
METAR KCGS 010935Z AUTO 00000KT 10SM OVC085 20/19 A2989 RMK AO1 T02030191

Settings

Location code

InnerDrive.Weather 4.0.6770.0 Release CLR 4.0.30319.42000
Copyright ©2018 Inner Drive Technology. All rights reserved. Portions Copyright ©1986-2018 David Braverman.

Find weather

Site navigation


Skip Navigation Links

Place info

Page info

PayPal - The safer, easier way to pay online!

Return home.

Copyright ©2021 Inner Drive Technology. Purveyors of fine, hand-crafted computer software. Page printed 2021-08-01T10:45:06 UTC.